createdAt,value
2022-08-22T00:00:06.813Z,48.66
2022-08-22T00:01:08.016Z,48.82
2022-08-22T00:02:08.994Z,48.18
2022-08-22T00:02:48.150Z,74.28
2022-08-22T00:02:48.679Z,75.57
2022-08-22T00:02:49.791Z,49.79
2022-08-22T00:02:53.826Z,71.22
2022-08-22T00:02:55.897Z,69.45
2022-08-22T00:03:00.025Z,70.42
2022-08-22T00:03:02.037Z,73.96
2022-08-22T00:03:04.340Z,70.58
2022-08-22T00:03:07.041Z,48.34
2022-08-22T00:03:22.761Z,48.34
2022-08-22T00:04:09.896Z,49.31
2022-08-22T00:05:07.735Z,49.31
2022-08-22T00:06:08.389Z,79.28
2022-08-22T00:07:08.036Z,77.02
2022-08-22T00:08:08.167Z,55.27
2022-08-22T00:09:08.416Z,48.50
2022-08-22T00:10:08.901Z,48.98
2022-08-22T00:11:08.649Z,56.40
2022-08-22T00:12:08.808Z,58.65
2022-08-22T00:13:08.966Z,50.27
2022-08-22T00:14:09.887Z,48.18
2022-08-22T00:15:16.368Z,56.40
2022-08-22T00:16:10.395Z,76.70
2022-08-22T00:17:09.542Z,77.67
2022-08-22T00:18:10.392Z,49.63
2022-08-22T00:19:43.313Z,49.15
2022-08-22T00:20:10.444Z,48.98
2022-08-22T00:21:10.926Z,48.98
2022-08-22T00:22:10.465Z,49.63
2022-08-22T00:23:10.616Z,49.47
2022-08-22T00:24:11.436Z,48.50
2022-08-22T00:25:25.431Z,49.31
2022-08-22T00:26:12.175Z,48.98
2022-08-22T00:27:11.315Z,49.63
2022-08-22T00:28:11.506Z,49.15
2022-08-22T00:29:12.431Z,70.74
2022-08-22T00:30:11.807Z,52.53
2022-08-22T00:31:12.962Z,48.50
2022-08-22T00:32:12.196Z,48.66
2022-08-22T00:33:12.354Z,47.86
2022-08-22T00:34:13.436Z,48.66
2022-08-22T00:35:12.699Z,59.30
2022-08-22T00:36:12.863Z,72.99
2022-08-22T00:37:13.017Z,51.56
2022-08-22T00:38:13.181Z,48.82
2022-08-22T00:39:13.342Z,49.15
2022-08-22T00:40:13.566Z,48.66
2022-08-22T00:41:13.680Z,48.98
2022-08-22T00:42:13.838Z,48.66
2022-08-22T00:43:14.941Z,48.50
2022-08-22T00:44:14.197Z,49.31
2022-08-22T00:45:14.361Z,48.82
2022-08-22T00:46:15.438Z,48.02
2022-08-22T00:47:14.687Z,48.34
2022-08-22T00:48:14.842Z,53.82
2022-08-22T00:49:47.900Z,70.90
2022-08-22T00:50:15.136Z,47.70
2022-08-22T00:51:15.279Z,58.01
2022-08-22T00:52:15.437Z,48.50
2022-08-22T00:53:15.628Z,48.98
2022-08-22T00:54:17.619Z,48.50
2022-08-22T00:55:52.404Z,49.47
2022-08-22T00:56:16.201Z,49.15
2022-08-22T00:57:16.349Z,48.82
2022-08-22T00:58:16.498Z,49.15
2022-08-22T00:59:23.268Z,48.34
2022-08-22T01:00:17.786Z,77.83
2022-08-22T01:01:17.093Z,48.98
2022-08-22T01:02:18.009Z,48.34
2022-08-22T01:03:18.038Z,48.18
2022-08-22T01:04:17.425Z,47.70
2022-08-22T01:05:18.529Z,74.93
2022-08-22T01:06:17.811Z,48.66
2022-08-22T01:07:18.520Z,52.53
2022-08-22T01:08:19.013Z,73.32
2022-08-22T01:09:18.282Z,49.79
2022-08-22T01:10:18.418Z,63.49
2022-08-22T01:11:18.583Z,49.63
2022-08-22T01:12:18.768Z,49.79
2022-08-22T01:13:19.519Z,49.31
2022-08-22T01:14:19.148Z,50.92
2022-08-22T01:15:19.332Z,49.15
2022-08-22T01:16:20.016Z,54.30
2022-08-22T01:17:19.655Z,66.06
2022-08-22T01:18:19.793Z,68.00
2022-08-22T01:19:20.515Z,52.85
2022-08-22T01:20:20.169Z,49.15
2022-08-22T01:21:24.091Z,48.34
2022-08-22T01:22:20.478Z,48.34
2022-08-22T01:23:20.629Z,49.15
2022-08-22T01:24:21.518Z,48.98
2022-08-22T01:25:25.861Z,54.30
2022-08-22T01:26:22.147Z,49.63
2022-08-22T01:27:21.333Z,52.69
2022-08-22T01:28:22.851Z,66.87
2022-08-22T01:29:28.198Z,48.98
2022-08-22T01:30:23.903Z,48.34
2022-08-22T01:31:22.009Z,49.15
2022-08-22T01:32:23.019Z,61.39
2022-08-22T01:33:22.366Z,75.89
2022-08-22T01:34:23.019Z,49.95
2022-08-22T01:35:22.653Z,69.77
2022-08-22T01:36:22.793Z,48.82
2022-08-22T01:37:22.919Z,49.31
2022-08-22T01:38:23.057Z,51.24
2022-08-22T01:39:23.234Z,48.98
2022-08-22T01:40:23.878Z,49.63
2022-08-22T01:41:24.524Z,49.15
2022-08-22T01:42:24.535Z,73.15
2022-08-22T01:43:58.677Z,58.17
2022-08-22T01:44:25.150Z,48.98
2022-08-22T01:45:24.241Z,49.15
2022-08-22T01:46:25.028Z,53.33
2022-08-22T01:47:24.566Z,51.08
2022-08-22T01:48:24.704Z,51.72
2022-08-22T01:49:25.524Z,51.08
2022-08-22T01:50:58.950Z,73.48
2022-08-22T01:51:25.187Z,48.66
2022-08-22T01:52:25.336Z,48.98
2022-08-22T01:53:25.467Z,50.27
2022-08-22T01:54:26.563Z,48.82
2022-08-22T01:55:26.068Z,49.47
2022-08-22T01:56:25.980Z,68.80
2022-08-22T01:57:26.168Z,72.35
2022-08-22T01:58:26.332Z,49.47
2022-08-22T01:59:33.692Z,76.05
2022-08-22T02:00:34.743Z,53.50
2022-08-22T02:01:28.708Z,60.42
2022-08-22T02:02:26.984Z,79.12
2022-08-22T02:03:27.102Z,74.60
2022-08-22T02:04:27.261Z,70.58
2022-08-22T02:05:28.078Z,51.88
2022-08-22T02:06:27.562Z,49.63
2022-08-22T02:07:31.925Z,52.69
2022-08-22T02:08:28.556Z,50.27
2022-08-22T02:09:28.569Z,72.35
2022-08-22T02:10:28.336Z,76.70
2022-08-22T02:11:29.061Z,56.40
2022-08-22T02:12:28.686Z,50.27
2022-08-22T02:13:28.819Z,76.05
2022-08-22T02:14:29.054Z,75.73
2022-08-22T02:15:29.218Z,76.05
2022-08-22T02:16:30.062Z,73.48
2022-08-22T02:17:29.578Z,52.53
2022-08-22T02:18:29.722Z,77.67
2022-08-22T02:19:29.874Z,74.77
2022-08-22T02:20:30.582Z,72.67
2022-08-22T02:21:31.065Z,72.99
2022-08-22T02:22:30.452Z,57.52
2022-08-22T02:23:30.591Z,67.51
2022-08-22T02:24:30.750Z,73.80
2022-08-22T02:25:30.907Z,74.44
2022-08-22T02:26:31.568Z,73.15
2022-08-22T02:27:31.733Z,74.28
2022-08-22T02:28:31.408Z,82.98
2022-08-22T02:29:31.561Z,72.99
2022-08-22T02:30:31.726Z,76.05
2022-08-22T02:31:31.862Z,66.71
2022-08-22T02:32:32.027Z,53.01
2022-08-22T02:33:32.158Z,66.71
2022-08-22T02:34:32.286Z,74.60
2022-08-22T02:35:32.430Z,70.42
2022-08-22T02:36:32.567Z,62.84
2022-08-22T02:37:32.722Z,74.44
2022-08-22T02:38:33.566Z,73.96
2022-08-22T02:39:33.057Z,75.41
2022-08-22T02:40:33.196Z,75.73
2022-08-22T02:41:33.579Z,76.70
2022-08-22T02:42:33.472Z,77.18
2022-08-22T02:43:33.601Z,64.45
2022-08-22T02:44:34.571Z,70.90
2022-08-22T02:45:34.569Z,74.44
2022-08-22T02:46:34.080Z,73.48
2022-08-22T02:47:34.236Z,70.42
2022-08-22T02:48:35.071Z,72.51
2022-08-22T02:49:34.551Z,78.47
2022-08-22T02:50:35.783Z,73.48
2022-08-22T02:52:08.426Z,75.57
2022-08-22T02:52:35.144Z,74.12
2022-08-22T02:53:36.303Z,73.32
2022-08-22T02:54:35.431Z,72.83
2022-08-22T02:55:35.570Z,72.03
2022-08-22T02:56:36.115Z,75.57
2022-08-22T02:57:39.613Z,77.34
2022-08-22T02:58:36.006Z,74.12
2022-08-22T02:59:36.150Z,68.48
2022-08-22T03:00:36.306Z,78.96
2022-08-22T03:01:36.624Z,73.96
2022-08-22T03:02:37.613Z,73.32
2022-08-22T03:03:36.845Z,77.18
2022-08-22T03:04:36.986Z,77.02
2022-08-22T03:05:37.120Z,76.38
2022-08-22T03:06:37.618Z,77.18
2022-08-22T03:07:37.473Z,77.18
2022-08-22T03:08:47.348Z,74.77
2022-08-22T03:09:38.968Z,75.25
2022-08-22T03:10:38.609Z,76.22
2022-08-22T03:11:38.254Z,75.25
2022-08-22T03:12:38.430Z,77.18
2022-08-22T03:13:38.567Z,75.57
2022-08-22T03:14:38.735Z,76.70
2022-08-22T03:15:38.870Z,75.57
2022-08-22T03:16:39.617Z,80.24
2022-08-22T03:17:39.237Z,78.31
2022-08-22T03:18:39.383Z,75.73
2022-08-22T03:19:40.606Z,75.73
2022-08-22T03:20:41.131Z,77.99
2022-08-22T03:21:39.973Z,76.38
2022-08-22T03:22:41.114Z,76.38
2022-08-22T03:23:40.397Z,76.70
2022-08-22T03:24:40.624Z,78.47
2022-08-22T03:25:40.753Z,77.83
2022-08-22T03:26:40.920Z,78.63
2022-08-22T03:27:41.045Z,75.09
2022-08-22T03:28:59.227Z,76.86
2022-08-22T03:29:42.376Z,75.25
2022-08-22T03:30:41.628Z,77.50
2022-08-22T03:31:42.620Z,78.47
2022-08-22T03:32:41.958Z,75.09
2022-08-22T03:33:42.194Z,78.63
2022-08-22T03:34:42.464Z,83.79
2022-08-22T03:35:42.626Z,76.22
2022-08-22T03:36:42.742Z,84.11
2022-08-22T03:37:42.976Z,80.89
2022-08-22T03:38:43.617Z,77.50
2022-08-22T03:39:44.163Z,74.60
2022-08-22T03:40:43.473Z,80.24
2022-08-22T03:41:44.127Z,79.60
2022-08-22T03:42:44.618Z,79.28
2022-08-22T03:43:44.623Z,78.47
2022-08-22T03:44:45.127Z,79.76
2022-08-22T03:45:44.267Z,77.34
2022-08-22T03:46:44.455Z,80.24
2022-08-22T03:47:44.607Z,78.47
2022-08-22T03:48:44.751Z,77.83
2022-08-22T03:49:44.886Z,79.44
2022-08-22T03:50:45.048Z,78.79
2022-08-22T03:51:45.242Z,80.73
2022-08-22T03:53:18.999Z,78.63
2022-08-22T03:53:45.497Z,67.84
2022-08-22T03:54:45.633Z,76.70
2022-08-22T03:55:45.798Z,75.89
2022-08-22T03:56:45.947Z,78.31
2022-08-22T03:57:46.189Z,79.60
2022-08-22T03:58:46.356Z,80.73
2022-08-22T03:59:46.495Z,80.08
2022-08-22T04:00:46.726Z,77.50
2022-08-22T04:01:47.902Z,75.41
2022-08-22T04:02:47.667Z,76.22
2022-08-22T04:03:47.186Z,78.79
2022-08-22T04:04:47.675Z,79.60
2022-08-22T04:05:47.549Z,77.18
2022-08-22T04:06:48.672Z,78.63
2022-08-22T04:07:47.826Z,81.21
2022-08-22T04:08:48.003Z,75.89
2022-08-22T04:09:48.150Z,82.50
2022-08-22T04:10:49.164Z,81.05
2022-08-22T04:11:48.527Z,79.12
2022-08-22T04:12:48.692Z,76.38
2022-08-22T04:13:48.840Z,76.54
2022-08-22T04:14:48.986Z,77.67
2022-08-22T04:15:49.144Z,77.18
2022-08-22T04:16:49.283Z,77.67
2022-08-22T04:17:49.467Z,74.28
2022-08-22T04:18:49.630Z,79.12
2022-08-22T04:19:49.807Z,76.86
2022-08-22T04:20:49.942Z,76.22
2022-08-22T04:21:50.083Z,78.31
2022-08-22T04:23:23.650Z,76.70
2022-08-22T04:23:50.364Z,76.05
2022-08-22T04:24:52.200Z,82.50
2022-08-22T04:25:50.708Z,76.22
2022-08-22T04:26:50.836Z,78.15
2022-08-22T04:27:50.998Z,80.57
2022-08-22T04:28:51.207Z,80.57
2022-08-22T04:29:51.381Z,76.38
2022-08-22T04:30:51.722Z,82.98
2022-08-22T04:31:51.732Z,77.18
2022-08-22T04:32:51.884Z,73.80
2022-08-22T04:33:52.711Z,78.96
2022-08-22T04:34:52.200Z,77.02
2022-08-22T04:35:52.719Z,75.09
2022-08-22T04:36:52.482Z,75.89
2022-08-22T04:37:52.700Z,79.76
2022-08-22T04:38:52.777Z,80.24
2022-08-22T04:39:52.994Z,78.15
2022-08-22T04:40:53.066Z,78.79
2022-08-22T04:41:53.212Z,79.60
2022-08-22T04:42:53.364Z,78.47
2022-08-22T04:43:53.535Z,78.63
2022-08-22T04:44:53.675Z,76.70
2022-08-22T04:45:53.872Z,79.76
2022-08-22T04:46:54.028Z,77.50
2022-08-22T04:47:54.436Z,77.02
2022-08-22T04:48:54.393Z,78.15
2022-08-22T04:49:54.578Z,77.34
2022-08-22T04:50:54.761Z,81.69
2022-08-22T04:51:56.722Z,77.50
2022-08-22T04:52:55.715Z,75.57
2022-08-22T04:54:28.163Z,83.79
2022-08-22T04:54:56.250Z,77.50
2022-08-22T04:55:55.776Z,80.08
2022-08-22T04:56:56.751Z,78.96
2022-08-22T04:57:56.753Z,76.38
2022-08-22T04:58:56.759Z,77.67
2022-08-22T04:59:56.269Z,77.50
2022-08-22T05:00:56.381Z,79.44
2022-08-22T05:01:56.591Z,80.41
2022-08-22T05:02:57.627Z,79.92
2022-08-22T05:03:56.850Z,80.57
2022-08-22T05:04:57.753Z,77.50
2022-08-22T05:05:57.747Z,81.37
2022-08-22T05:06:58.765Z,77.83
2022-08-22T05:07:57.526Z,77.67
2022-08-22T05:08:57.731Z,78.31
2022-08-22T05:09:57.845Z,75.89
2022-08-22T05:10:58.775Z,79.92
2022-08-22T05:11:58.280Z,77.67
2022-08-22T05:12:58.428Z,76.70
2022-08-22T05:13:58.564Z,77.34
2022-08-22T05:14:58.709Z,77.34
2022-08-22T05:15:58.921Z,78.31
2022-08-22T05:16:59.759Z,76.70
2022-08-22T05:17:59.479Z,79.12
2022-08-22T05:18:59.438Z,78.96
2022-08-22T05:19:59.771Z,75.73
2022-08-22T05:20:59.818Z,78.15
2022-08-22T05:21:59.978Z,78.47
2022-08-22T05:23:00.122Z,80.08
2022-08-22T05:24:01.246Z,77.02
2022-08-22T05:25:01.485Z,78.96
2022-08-22T05:26:00.771Z,77.99
2022-08-22T05:27:01.301Z,79.28
2022-08-22T05:28:01.287Z,76.70
2022-08-22T05:29:01.194Z,75.89
2022-08-22T05:30:03.254Z,77.67
2022-08-22T05:31:02.784Z,78.31
2022-08-22T05:32:01.640Z,83.31
2022-08-22T05:33:01.822Z,79.28
2022-08-22T05:34:01.967Z,78.79
2022-08-22T05:35:02.757Z,76.70
2022-08-22T05:36:02.255Z,77.34
2022-08-22T05:37:03.393Z,76.86
2022-08-22T05:38:02.611Z,76.86
2022-08-22T05:39:02.769Z,78.15
2022-08-22T05:40:02.930Z,77.50
2022-08-22T05:41:03.079Z,77.67
2022-08-22T05:42:03.761Z,77.34
2022-08-22T05:43:03.418Z,77.83
2022-08-22T05:44:04.268Z,82.98
2022-08-22T05:45:03.749Z,77.02
2022-08-22T05:46:03.882Z,78.15
2022-08-22T05:47:04.016Z,78.47
2022-08-22T05:48:04.282Z,75.25
2022-08-22T05:49:04.295Z,76.70
2022-08-22T05:50:05.270Z,77.83
2022-08-22T05:51:05.271Z,78.96
2022-08-22T05:52:04.882Z,77.50
2022-08-22T05:53:05.147Z,81.86
2022-08-22T05:54:05.288Z,76.54
2022-08-22T05:55:05.468Z,77.99
2022-08-22T05:56:05.627Z,77.67
2022-08-22T05:57:07.903Z,79.92
2022-08-22T05:58:07.785Z,77.99
2022-08-22T05:59:08.590Z,77.99
2022-08-22T06:00:06.282Z,75.89
2022-08-22T06:01:07.267Z,76.22
2022-08-22T06:02:07.719Z,77.67
2022-08-22T06:03:06.809Z,78.15
2022-08-22T06:04:07.773Z,80.89
2022-08-22T06:05:11.763Z,76.70
2022-08-22T06:06:08.384Z,76.86
2022-08-22T06:07:07.778Z,80.08
2022-08-22T06:08:07.692Z,73.96
2022-08-22T06:09:07.851Z,76.70
2022-08-22T06:10:08.028Z,77.34
2022-08-22T06:11:08.772Z,75.41
2022-08-22T06:12:11.619Z,80.73
2022-08-22T06:13:11.427Z,75.09
2022-08-22T06:14:08.832Z,78.79
2022-08-22T06:15:11.839Z,81.37
2022-08-22T06:16:09.260Z,79.44
2022-08-22T06:17:10.276Z,74.28
2022-08-22T06:18:09.537Z,77.50
2022-08-22T06:19:19.091Z,76.22
2022-08-22T06:20:11.284Z,76.38
2022-08-22T06:21:10.141Z,77.67
2022-08-22T06:22:10.286Z,80.89
2022-08-22T06:23:10.470Z,78.79
2022-08-22T06:24:11.277Z,79.12
2022-08-22T06:25:43.714Z,77.34
2022-08-22T06:26:20.489Z,73.96
2022-08-22T06:27:12.191Z,77.18
2022-08-22T06:28:12.304Z,76.05
2022-08-22T06:29:11.536Z,76.38
2022-08-22T06:30:11.655Z,76.05
2022-08-22T06:31:12.943Z,77.67
2022-08-22T06:32:12.065Z,77.34
2022-08-22T06:33:12.587Z,77.83
2022-08-22T06:34:12.330Z,82.18
2022-08-22T06:35:12.504Z,76.22
2022-08-22T06:36:12.674Z,74.28
2022-08-22T06:37:12.829Z,74.93
2022-08-22T06:38:12.970Z,77.50
2022-08-22T06:39:13.126Z,76.86
2022-08-22T06:40:13.339Z,76.22
2022-08-22T06:41:13.823Z,79.12
2022-08-22T06:42:16.703Z,76.38
2022-08-22T06:43:14.836Z,77.99
2022-08-22T06:44:14.918Z,77.50
2022-08-22T06:45:14.171Z,74.12
2022-08-22T06:46:14.367Z,77.18
2022-08-22T06:47:14.864Z,75.25
2022-08-22T06:48:15.313Z,75.73
2022-08-22T06:49:14.821Z,78.63
2022-08-22T06:50:14.984Z,78.47
2022-08-22T06:51:15.334Z,74.93
2022-08-22T06:52:15.824Z,78.63
2022-08-22T06:53:16.317Z,76.22
2022-08-22T06:54:16.321Z,75.41
2022-08-22T06:55:15.838Z,77.18
2022-08-22T06:56:16.822Z,76.38
2022-08-22T06:57:16.227Z,74.12
2022-08-22T06:58:17.317Z,73.64
2022-08-22T06:59:16.559Z,75.25
2022-08-22T07:00:17.316Z,75.73
2022-08-22T07:01:16.922Z,77.34
2022-08-22T07:02:17.122Z,74.93
2022-08-22T07:03:17.835Z,78.79
2022-08-22T07:04:17.482Z,77.18
2022-08-22T07:05:17.660Z,76.70
2022-08-22T07:06:17.809Z,74.12
2022-08-22T07:07:17.957Z,76.86
2022-08-22T07:08:18.107Z,75.89
2022-08-22T07:09:18.328Z,75.25
2022-08-22T07:10:18.483Z,76.54
2022-08-22T07:11:18.609Z,76.05
2022-08-22T07:12:18.758Z,75.89
2022-08-22T07:13:19.828Z,76.22
2022-08-22T07:14:19.336Z,79.92
2022-08-22T07:15:19.222Z,74.60
2022-08-22T07:16:19.374Z,77.34
2022-08-22T07:17:19.553Z,77.18
2022-08-22T07:18:19.726Z,76.86
2022-08-22T07:19:19.908Z,78.15
2022-08-22T07:20:20.090Z,76.05
2022-08-22T07:21:20.231Z,75.09
2022-08-22T07:22:20.461Z,81.05
2022-08-22T07:23:20.626Z,76.70
2022-08-22T07:24:21.327Z,76.22
2022-08-22T07:25:20.968Z,75.89
2022-08-22T07:26:21.124Z,74.44
2022-08-22T07:27:21.317Z,74.60
2022-08-22T07:28:21.473Z,75.57
2022-08-22T07:29:23.351Z,74.60
2022-08-22T07:30:27.820Z,76.05
2022-08-22T07:31:22.955Z,73.80
2022-08-22T07:32:22.214Z,80.08
2022-08-22T07:33:26.820Z,75.25
2022-08-22T07:34:22.606Z,77.50
2022-08-22T07:35:22.774Z,74.93
2022-08-22T07:36:23.285Z,75.73
2022-08-22T07:37:24.120Z,75.09
2022-08-22T07:38:23.306Z,75.89
2022-08-22T07:39:23.451Z,74.60
2022-08-22T07:40:23.645Z,75.89
2022-08-22T07:41:24.328Z,76.70
2022-08-22T07:42:27.466Z,77.50
2022-08-22T07:43:24.182Z,73.80
2022-08-22T07:44:24.354Z,77.18
2022-08-22T07:45:25.333Z,72.67
2022-08-22T07:46:24.715Z,79.76
2022-08-22T07:47:26.147Z,76.38
2022-08-22T07:48:26.588Z,75.89
2022-08-22T07:49:26.227Z,76.05
2022-08-22T07:50:25.464Z,76.22
2022-08-22T07:51:25.649Z,76.05
2022-08-22T07:52:25.784Z,78.47
2022-08-22T07:53:25.930Z,75.09
2022-08-22T07:54:27.083Z,75.09
2022-08-22T07:55:26.839Z,74.77
2022-08-22T07:56:27.337Z,75.73
2022-08-22T07:57:26.737Z,75.57
2022-08-22T07:58:26.886Z,75.25
2022-08-22T07:59:27.080Z,74.28
2022-08-22T08:00:27.840Z,74.93
2022-08-22T08:01:27.537Z,74.60
2022-08-22T08:02:28.346Z,77.67
2022-08-22T08:03:28.339Z,78.15
2022-08-22T08:04:28.010Z,77.50
2022-08-22T08:05:28.347Z,76.22
2022-08-22T08:06:28.351Z,75.57
2022-08-22T08:07:28.844Z,74.28
2022-08-22T08:08:30.342Z,74.93
2022-08-22T08:09:28.987Z,73.15
2022-08-22T08:10:29.140Z,75.57
2022-08-22T08:11:29.252Z,75.25
2022-08-22T08:12:29.861Z,74.28
2022-08-22T08:13:29.617Z,74.12
2022-08-22T08:14:29.754Z,74.28
2022-08-22T08:15:30.853Z,74.12
2022-08-22T08:16:30.256Z,75.09
2022-08-22T08:17:32.394Z,76.54
2022-08-22T08:18:32.357Z,78.96
2022-08-22T08:19:31.357Z,74.28
2022-08-22T08:20:30.829Z,77.18
2022-08-22T08:21:31.100Z,75.25
2022-08-22T08:22:31.221Z,73.15
2022-08-22T08:23:31.340Z,82.50
2022-08-22T08:24:40.036Z,77.34
2022-08-22T08:25:32.698Z,76.05
2022-08-22T08:26:31.945Z,77.18
2022-08-22T08:28:05.521Z,77.34
2022-08-22T08:28:32.252Z,71.70
2022-08-22T08:29:32.366Z,74.44
2022-08-22T08:30:32.504Z,75.57
2022-08-22T08:31:32.899Z,71.70
2022-08-22T08:32:32.901Z,74.77
2022-08-22T08:33:33.032Z,73.48
2022-08-22T08:34:34.720Z,73.64
2022-08-22T08:35:42.168Z,75.73
2022-08-22T08:36:34.520Z,75.57
2022-08-22T08:37:33.635Z,74.28
2022-08-22T08:38:33.910Z,75.41
2022-08-22T08:39:35.276Z,73.64
2022-08-22T08:40:35.110Z,75.09
2022-08-22T08:41:34.351Z,77.18
2022-08-22T08:42:34.481Z,72.67
2022-08-22T08:43:34.634Z,76.70
2022-08-22T08:44:34.801Z,78.31
2022-08-22T08:45:34.937Z,73.80
2022-08-22T08:46:35.078Z,71.87
2022-08-22T08:47:35.305Z,73.80
2022-08-22T08:48:35.435Z,74.77
2022-08-22T08:49:35.570Z,74.60
2022-08-22T08:50:36.395Z,75.41
2022-08-22T08:51:36.903Z,76.86
2022-08-22T08:52:36.273Z,76.86
2022-08-22T08:53:36.416Z,73.80
2022-08-22T08:54:36.565Z,73.15
2022-08-22T08:55:37.406Z,80.24
2022-08-22T08:56:36.890Z,73.96
2022-08-22T08:58:10.467Z,74.28
2022-08-22T08:58:38.092Z,72.67
2022-08-22T09:00:39.445Z,73.80
2022-08-22T09:01:37.993Z,74.60
2022-08-22T09:02:40.506Z,74.12
2022-08-22T09:03:38.298Z,74.93
2022-08-22T09:04:38.399Z,75.73
2022-08-22T09:05:39.441Z,74.77
2022-08-22T09:06:38.780Z,72.83
2022-08-22T09:07:38.927Z,72.67
2022-08-22T09:08:39.170Z,76.05
2022-08-22T09:09:39.938Z,75.73
2022-08-22T09:10:39.518Z,75.41
2022-08-22T09:11:39.649Z,77.50
2022-08-22T09:12:52.258Z,77.83
2022-08-22T09:13:41.093Z,77.50
2022-08-22T09:14:40.388Z,76.05
2022-08-22T09:15:40.505Z,75.89
2022-08-22T09:16:46.205Z,73.96
2022-08-22T09:17:42.443Z,78.31
2022-08-22T09:18:41.077Z,74.93
2022-08-22T09:19:41.221Z,76.22
2022-08-22T09:20:41.348Z,73.64
2022-08-22T09:21:41.488Z,74.77
2022-08-22T09:22:49.849Z,76.86
2022-08-22T09:23:43.471Z,74.93
2022-08-22T09:24:41.958Z,74.12
2022-08-22T09:25:42.952Z,74.12
2022-08-22T09:26:42.356Z,77.67
2022-08-22T09:27:42.962Z,74.44
2022-08-22T09:28:42.706Z,78.31
2022-08-22T09:29:51.442Z,74.28
2022-08-22T09:30:44.948Z,71.38
2022-08-22T09:31:51.947Z,72.35
2022-08-22T09:32:44.490Z,73.15
2022-08-22T09:33:44.448Z,74.93
2022-08-22T09:34:43.965Z,75.57
2022-08-22T09:35:44.019Z,75.73
2022-08-22T09:36:44.165Z,76.38
2022-08-22T09:37:44.953Z,73.96
2022-08-22T09:38:47.965Z,73.32
2022-08-22T09:39:44.734Z,72.35
2022-08-22T09:40:44.963Z,74.77
2022-08-22T09:41:45.471Z,73.48
2022-08-22T09:42:46.436Z,75.25
2022-08-22T09:43:48.724Z,72.67
2022-08-22T09:44:45.507Z,72.99
2022-08-22T09:45:47.120Z,78.15
2022-08-22T09:46:45.895Z,75.09
2022-08-22T09:47:46.954Z,71.70
2022-08-22T09:48:46.209Z,76.54
2022-08-22T09:49:46.962Z,73.80
2022-08-22T09:50:46.562Z,78.79
2022-08-22T09:51:47.460Z,76.70
2022-08-22T09:52:47.455Z,74.28
2022-08-22T09:53:46.984Z,77.18
2022-08-22T09:54:47.103Z,72.83
2022-08-22T09:55:47.473Z,72.83
2022-08-22T09:56:47.487Z,71.70
2022-08-22T09:57:47.667Z,75.73
2022-08-22T09:59:22.311Z,75.73
2022-08-22T09:59:48.994Z,75.25
2022-08-22T10:00:54.736Z,76.70
2022-08-22T10:01:49.993Z,75.25
2022-08-22T10:02:53.711Z,74.44
2022-08-22T10:03:49.751Z,72.67
2022-08-22T10:04:49.494Z,73.15
2022-08-22T10:05:49.146Z,76.54
2022-08-22T10:06:49.303Z,73.32
2022-08-22T10:07:52.753Z,72.35
2022-08-22T10:08:49.604Z,72.35
2022-08-22T10:09:49.742Z,76.54
2022-08-22T10:10:51.005Z,72.99
2022-08-22T10:11:50.130Z,73.96
2022-08-22T10:12:50.999Z,74.60
2022-08-22T10:13:56.620Z,74.12
2022-08-22T10:14:51.618Z,75.25
2022-08-22T10:15:51.009Z,74.60
2022-08-22T10:16:51.056Z,74.44
2022-08-22T10:17:51.228Z,77.18
2022-08-22T10:18:52.819Z,72.99
2022-08-22T10:19:52.502Z,74.93
2022-08-22T10:20:51.743Z,75.73
2022-08-22T10:21:51.982Z,73.96
2022-08-22T10:22:52.127Z,74.93
2022-08-22T10:23:52.287Z,73.64
2022-08-22T10:24:52.420Z,77.67
2022-08-22T10:25:52.562Z,74.28
2022-08-22T10:26:53.010Z,78.96
2022-08-22T10:27:52.907Z,77.34
2022-08-22T10:29:26.498Z,73.32
2022-08-22T10:29:54.042Z,70.25
2022-08-22T10:30:54.045Z,73.96
2022-08-22T10:31:59.039Z,74.77
2022-08-22T10:32:54.676Z,72.35
2022-08-22T10:33:53.803Z,77.83
2022-08-22T10:34:53.992Z,77.99
2022-08-22T10:35:55.046Z,73.80
2022-08-22T10:36:54.572Z,73.64
2022-08-22T10:37:54.551Z,76.05
2022-08-22T10:38:54.713Z,75.73
2022-08-22T10:39:54.934Z,74.60
2022-08-22T10:40:55.097Z,75.09
2022-08-22T10:41:55.201Z,75.25
2022-08-22T10:42:55.372Z,78.96
2022-08-22T10:44:00.497Z,75.09
2022-08-22T10:44:56.666Z,73.32
2022-08-22T10:45:56.547Z,73.96
2022-08-22T10:46:55.993Z,77.99
2022-08-22T10:47:56.171Z,74.12
2022-08-22T10:48:56.573Z,72.99
2022-08-22T10:49:57.044Z,73.15
2022-08-22T10:50:57.544Z,74.60
2022-08-22T10:51:56.849Z,74.60
2022-08-22T10:52:57.014Z,74.93
2022-08-22T10:53:57.571Z,75.09
2022-08-22T10:54:57.292Z,69.77
2022-08-22T10:55:57.455Z,73.15
2022-08-22T10:56:58.061Z,72.67
2022-08-22T10:57:57.776Z,73.15
2022-08-22T10:58:58.050Z,75.09
2022-08-22T11:00:31.595Z,72.35
2022-08-22T11:00:59.107Z,72.51
2022-08-22T11:01:58.860Z,71.87
2022-08-22T11:02:59.761Z,74.60
2022-08-22T11:03:59.598Z,72.19
2022-08-22T11:04:59.087Z,71.87
2022-08-22T11:06:00.088Z,71.38
2022-08-22T11:06:59.339Z,74.77
2022-08-22T11:08:00.083Z,74.77
2022-08-22T11:08:59.706Z,73.48
2022-08-22T11:09:59.922Z,74.77
2022-08-22T11:11:00.146Z,73.48
2022-08-22T11:12:00.295Z,74.77
2022-08-22T11:13:00.737Z,73.48
2022-08-22T11:14:00.618Z,73.80
2022-08-22T11:15:00.764Z,74.28
2022-08-22T11:16:00.997Z,74.12
2022-08-22T11:17:02.120Z,74.12
2022-08-22T11:18:02.355Z,76.05
2022-08-22T11:19:02.748Z,72.99
2022-08-22T11:20:01.619Z,72.83
2022-08-22T11:21:02.144Z,74.77
2022-08-22T11:22:01.934Z,76.22
2022-08-22T11:23:02.291Z,76.70
2022-08-22T11:24:03.277Z,75.25
2022-08-22T11:25:04.643Z,77.50
2022-08-22T11:26:05.094Z,71.70
2022-08-22T11:27:02.743Z,73.64
2022-08-22T11:28:02.989Z,72.19
2022-08-22T11:29:13.142Z,75.25
2022-08-22T11:30:44.075Z,73.96
2022-08-22T11:31:07.328Z,70.90
2022-08-22T11:32:06.117Z,77.67
2022-08-22T11:33:04.495Z,77.50
2022-08-22T11:34:04.629Z,72.03
2022-08-22T11:35:09.346Z,73.96
2022-08-22T11:36:04.577Z,73.32
2022-08-22T11:37:10.990Z,73.64
2022-08-22T11:38:06.628Z,73.15
2022-08-22T11:39:05.139Z,75.09
2022-08-22T11:40:05.697Z,68.64
2022-08-22T11:41:05.452Z,70.58
2022-08-22T11:42:06.136Z,73.64
2022-08-22T11:43:07.353Z,80.89
2022-08-22T11:44:07.631Z,71.54
2022-08-22T11:45:06.132Z,76.22
2022-08-22T11:46:06.635Z,72.99
2022-08-22T11:47:07.169Z,75.57
2022-08-22T11:48:06.505Z,72.51
2022-08-22T11:49:06.631Z,73.64
2022-08-22T11:50:13.369Z,73.48
2022-08-22T11:51:13.115Z,72.83
2022-08-22T11:52:08.483Z,71.87
2022-08-22T11:53:07.737Z,69.45
2022-08-22T11:54:07.609Z,72.83
2022-08-22T11:55:07.750Z,75.89
2022-08-22T11:56:07.914Z,71.54
2022-08-22T11:57:08.056Z,71.87
2022-08-22T11:58:08.241Z,72.67
2022-08-22T11:59:08.382Z,73.32
2022-08-22T12:00:08.514Z,73.48
2022-08-22T12:01:11.791Z,72.51
2022-08-22T12:02:11.072Z,72.35
2022-08-22T12:03:09.669Z,73.32
2022-08-22T12:04:10.190Z,75.41
2022-08-22T12:05:10.133Z,72.35
2022-08-22T12:06:09.854Z,71.87
2022-08-22T12:07:09.979Z,72.35
2022-08-22T12:08:10.212Z,75.09
2022-08-22T12:09:10.366Z,73.96
2022-08-22T12:10:13.768Z,71.22
2022-08-22T12:11:10.741Z,73.80
2022-08-22T12:12:11.638Z,74.28
2022-08-22T12:13:11.668Z,79.12
2022-08-22T12:14:11.163Z,73.48
2022-08-22T12:15:11.349Z,77.34
2022-08-22T12:16:11.494Z,72.83
2022-08-22T12:17:11.694Z,73.96
2022-08-22T12:18:15.327Z,71.22
2022-08-22T12:19:13.032Z,78.96
2022-08-22T12:20:16.071Z,75.09
2022-08-22T12:21:13.451Z,73.15
2022-08-22T12:22:12.560Z,73.64
2022-08-22T12:23:13.647Z,73.48
2022-08-22T12:24:20.858Z,71.87
2022-08-22T12:25:14.051Z,72.51
2022-08-22T12:26:14.141Z,77.67
2022-08-22T12:27:13.405Z,76.38
2022-08-22T12:28:14.556Z,77.18
2022-08-22T12:29:15.527Z,72.67
2022-08-22T12:30:14.389Z,73.15
2022-08-22T12:31:14.140Z,74.28
2022-08-22T12:32:49.058Z,74.93
2022-08-22T12:33:17.298Z,72.83
2022-08-22T12:34:16.198Z,71.87
2022-08-22T12:35:14.791Z,74.44
2022-08-22T12:36:18.374Z,73.64
2022-08-22T12:37:15.199Z,73.64
2022-08-22T12:38:29.228Z,71.87
2022-08-22T12:39:16.549Z,77.83
2022-08-22T12:40:15.831Z,75.09
2022-08-22T12:41:28.477Z,74.77
2022-08-22T12:42:17.172Z,74.77
2022-08-22T12:43:18.743Z,75.09
2022-08-22T12:44:17.285Z,71.54
2022-08-22T12:45:17.685Z,72.67
2022-08-22T12:46:16.925Z,71.54